Terminal Aerodrome Forecast
Issued by NWS Memphis, TN

Home | Current Version | Previous Version | Text Only | Print | Product List | Glossary On
Versions: 1 2 3 4 5 6 7 8 9 10 11 12 13 14 15 16 17 18 19 20 21 22 23 24 25 26 27 28 29
000
FTUS44 KMEG 010520
TAFMEM
TAF
KMEM 010520Z 0106/0206 17010KT P6SM OVC100
     FM011000 18012G18KT P6SM VCSH OVC050
     FM011300 18015G22KT 5SM -RA BR OVC010
     FM011500 19015G22KT 3SM -RA BR OVC005
     FM012100 22011G20KT 3SM -RA BR OVC007
     FM020000 29012KT P6SM VCSH OVC012=

USA.gov is the U.S. government's official web portal to all federal, state and local government web resources and services.